createdAt,value
2018-06-18T00:01:55.283Z,101432.07
2018-06-18T00:04:24.393Z,101440.08
2018-06-18T00:06:53.541Z,101437.80
2018-06-18T00:09:22.665Z,101423.52
2018-06-18T00:11:51.757Z,101425.31
2018-06-18T00:14:20.850Z,101417.92
2018-06-18T00:16:49.955Z,101423.04
2018-06-18T00:19:19.073Z,101425.52
2018-06-18T00:21:48.206Z,101438.55
2018-06-18T00:24:17.314Z,101431.56
2018-06-18T00:26:46.417Z,101427.48
2018-06-18T00:29:15.597Z,101419.92
2018-06-18T00:31:44.773Z,101427.17
2018-06-18T00:34:13.892Z,101431.59
2018-06-18T00:36:42.977Z,101432.88
2018-06-18T00:39:12.085Z,101432.78
2018-06-18T00:41:41.178Z,101428.45
2018-06-18T00:44:10.273Z,101426.17
2018-06-18T00:46:39.417Z,101420.28
2018-06-18T00:49:08.477Z,101416.31
2018-06-18T00:51:37.573Z,101408.45
2018-06-18T00:54:06.679Z,101411.07
2018-06-18T00:56:35.790Z,101408.58
2018-06-18T00:59:04.933Z,101398.41
2018-06-18T01:01:34.040Z,101399.23
2018-06-18T01:04:03.149Z,101395.51
2018-06-18T01:06:32.258Z,101402.30
2018-06-18T01:09:01.385Z,101396.95
2018-06-18T01:11:30.517Z,101402.85
2018-06-18T01:13:59.602Z,101394.56
2018-06-18T01:16:28.730Z,101396.50
2018-06-18T01:18:57.822Z,101396.70
2018-06-18T01:21:26.909Z,101400.59
2018-06-18T01:23:59.525Z,101405.08
2018-06-18T01:26:28.714Z,101397.88
2018-06-18T01:28:58.123Z,101397.22
2018-06-18T01:31:27.226Z,101387.44
2018-06-18T01:33:59.810Z,101383.64
2018-06-18T01:36:28.894Z,101381.28
2018-06-18T01:38:58.006Z,101391.19
2018-06-18T01:41:27.111Z,101391.80
2018-06-18T01:43:56.217Z,101397.83
2018-06-18T01:46:26.929Z,101395.20
2018-06-18T01:48:56.017Z,101394.73
2018-06-18T01:51:25.113Z,101395.12
2018-06-18T01:53:54.209Z,101399.31
2018-06-18T01:56:23.336Z,101393.19
2018-06-18T01:58:52.437Z,101396.29
2018-06-18T02:01:21.609Z,101401.23
2018-06-18T02:03:50.725Z,101403.25
2018-06-18T02:06:19.850Z,101398.33
2018-06-18T02:08:48.966Z,101399.09
2018-06-18T02:11:18.132Z,101391.28
2018-06-18T02:13:47.326Z,101398.34
2018-06-18T02:16:17.702Z,101397.70
2018-06-18T02:18:46.776Z,101387.73
2018-06-18T02:21:16.006Z,101389.39
2018-06-18T02:23:45.116Z,101392.41
2018-06-18T02:26:14.227Z,101389.00
2018-06-18T02:28:48.637Z,101386.37
2018-06-18T02:31:23.161Z,101389.25
2018-06-18T02:33:57.410Z,101389.25
2018-06-18T02:37:33.481Z,101381.09
2018-06-18T02:40:07.994Z,101388.00
2018-06-18T02:42:37.105Z,101393.20
2018-06-18T02:45:06.205Z,101389.48
2018-06-18T02:47:35.309Z,101383.08
2018-06-18T02:50:04.447Z,101382.84
2018-06-18T02:52:33.558Z,101388.12
2018-06-18T02:55:02.667Z,101390.09
2018-06-18T02:57:31.773Z,101384.80
2018-06-18T03:00:00.909Z,101388.38
2018-06-18T03:02:30.060Z,101386.64
2018-06-18T03:04:59.158Z,101385.22
2018-06-18T03:07:28.263Z,101392.94
2018-06-18T03:09:57.363Z,101395.38
2018-06-18T03:12:26.481Z,101400.02
2018-06-18T03:14:55.579Z,101396.56
2018-06-18T03:17:24.659Z,101394.16
2018-06-18T03:19:59.278Z,101389.69
2018-06-18T03:22:33.795Z,101403.68
2018-06-18T03:25:08.285Z,101404.98
2018-06-18T03:27:42.657Z,101404.30
2018-06-18T03:30:11.767Z,101400.22
2018-06-18T03:32:41.339Z,101404.90
2018-06-18T03:35:10.713Z,101403.08
2018-06-18T03:37:39.858Z,101399.62
2018-06-18T03:40:09.178Z,101401.19
2018-06-18T03:42:38.301Z,101402.68
2018-06-18T03:45:11.157Z,101401.80
2018-06-18T03:47:40.241Z,101400.36
2018-06-18T03:50:09.343Z,101394.64
2018-06-18T03:52:38.445Z,101398.61
2018-06-18T03:55:12.357Z,101405.47
2018-06-18T03:57:41.481Z,101399.87
2018-06-18T04:00:10.937Z,101395.25
2018-06-18T04:02:50.992Z,101397.74
2018-06-18T04:05:25.450Z,101392.45
2018-06-18T04:07:57.154Z,101393.14
2018-06-18T04:10:32.814Z,101388.17
2018-06-18T04:13:02.019Z,101395.72
2018-06-18T04:15:31.286Z,101389.98
2018-06-18T04:18:00.433Z,101397.36
2018-06-18T04:20:42.511Z,101401.23
2018-06-18T04:23:11.599Z,101401.84
2018-06-18T04:25:40.713Z,101400.87
2018-06-18T04:28:09.880Z,101406.36
2018-06-18T04:30:38.985Z,101413.88
2018-06-18T04:33:08.725Z,101409.41
2018-06-18T04:35:37.852Z,101418.54
2018-06-18T04:38:06.949Z,101412.42
2018-06-18T04:40:36.055Z,101418.14
2018-06-18T04:43:10.479Z,101407.27
2018-06-18T04:45:42.393Z,101408.87
2018-06-18T04:48:16.690Z,101416.16
2018-06-18T04:50:51.061Z,101415.34
2018-06-18T04:53:20.225Z,101420.63
2018-06-18T04:55:49.374Z,101420.58
2018-06-18T04:58:18.501Z,101422.76
2018-06-18T05:01:11.998Z,101419.75
2018-06-18T05:03:41.122Z,101419.52
2018-06-18T05:06:10.249Z,101421.36
2018-06-18T05:08:58.063Z,101420.52
2018-06-18T05:11:27.191Z,101419.36
2018-06-18T05:13:56.294Z,101421.02
2018-06-18T05:16:25.450Z,101420.68
2018-06-18T05:18:54.554Z,101420.52
2018-06-18T05:21:23.668Z,101417.89
2018-06-18T05:23:52.790Z,101423.27
2018-06-18T05:26:22.859Z,101419.10
2018-06-18T05:28:52.311Z,101412.60
2018-06-18T05:31:21.514Z,101414.14
2018-06-18T05:33:50.665Z,101415.72
2018-06-18T05:36:19.761Z,101422.66
2018-06-18T05:38:49.037Z,101421.77
2018-06-18T05:41:18.153Z,101424.39
2018-06-18T05:43:47.309Z,101423.81
2018-06-18T05:46:16.447Z,101432.94
2018-06-18T05:48:45.577Z,101433.33
2018-06-18T05:51:14.677Z,101435.34
2018-06-18T05:53:43.800Z,101435.66
2018-06-18T05:56:12.941Z,101433.91
2018-06-18T05:58:42.106Z,101432.27
2018-06-18T06:01:11.222Z,101427.18
2018-06-18T06:03:40.361Z,101430.11
2018-06-18T06:06:09.568Z,101426.48
2018-06-18T06:08:38.617Z,101430.11
2018-06-18T06:11:07.852Z,101434.16
2018-06-18T06:13:36.945Z,101432.17
2018-06-18T06:16:06.106Z,101435.36
2018-06-18T06:18:35.205Z,101427.43
2018-06-18T06:21:07.723Z,101426.13
2018-06-18T06:23:37.342Z,101436.69
2018-06-18T06:26:06.500Z,101435.52
2018-06-18T06:28:35.709Z,101436.62
2018-06-18T06:31:04.853Z,101434.56
2018-06-18T06:33:33.995Z,101440.13
2018-06-18T06:36:03.677Z,101440.25
2018-06-18T06:38:32.810Z,101438.27
2018-06-18T06:41:01.938Z,101439.02
2018-06-18T06:43:31.049Z,101444.45
2018-06-18T06:46:00.170Z,101438.58
2018-06-18T06:48:29.321Z,101443.07
2018-06-18T06:50:58.417Z,101443.27
2018-06-18T06:53:27.533Z,101445.25
2018-06-18T06:55:56.631Z,101449.11
2018-06-18T06:58:25.733Z,101441.98
2018-06-18T07:00:54.831Z,101446.70
2018-06-18T07:03:23.954Z,101452.28
2018-06-18T07:05:53.085Z,101448.30
2018-06-18T07:08:22.181Z,101453.20
2018-06-18T07:10:51.294Z,101456.70
2018-06-18T07:13:20.414Z,101449.19
2018-06-18T07:15:49.556Z,101457.50
2018-06-18T07:18:18.670Z,101464.08
2018-06-18T07:20:47.790Z,101466.58
2018-06-18T07:23:16.921Z,101460.83
2018-06-18T07:25:46.048Z,101474.65
2018-06-18T07:28:15.189Z,101467.70
2018-06-18T07:30:44.284Z,101464.86
2018-06-18T07:33:13.381Z,101474.14
2018-06-18T07:35:42.470Z,101475.31
2018-06-18T07:38:11.589Z,101475.30
2018-06-18T07:40:40.686Z,101471.86
2018-06-18T07:43:09.834Z,101469.67
2018-06-18T07:45:39.035Z,101468.65
2018-06-18T07:48:08.121Z,101464.39
2018-06-18T07:50:37.221Z,101470.23
2018-06-18T07:53:06.321Z,101468.52
2018-06-18T07:55:35.425Z,101459.30
2018-06-18T07:58:04.649Z,101460.67
2018-06-18T08:00:33.770Z,101462.00
2018-06-18T08:03:02.892Z,101459.95
2018-06-18T08:05:31.990Z,101465.25
2018-06-18T08:08:01.118Z,101462.89
2018-06-18T08:10:30.277Z,101466.56
2018-06-18T08:12:59.419Z,101462.40
2018-06-18T08:15:28.520Z,101466.84
2018-06-18T08:17:57.633Z,101459.56
2018-06-18T08:20:26.743Z,101458.24
2018-06-18T08:22:55.857Z,101456.78
2018-06-18T08:25:24.977Z,101452.81
2018-06-18T08:27:54.091Z,101452.47
2018-06-18T08:30:23.173Z,101445.34
2018-06-18T08:32:52.289Z,101447.14
2018-06-18T08:35:21.451Z,101446.30
2018-06-18T08:37:50.589Z,101452.22
2018-06-18T08:40:19.742Z,101453.95
2018-06-18T08:42:48.867Z,101453.17
2018-06-18T08:45:18.030Z,101460.04
2018-06-18T08:47:47.181Z,101450.94
2018-06-18T08:50:21.433Z,101458.37
2018-06-18T08:52:55.732Z,101451.23
2018-06-18T08:55:30.081Z,101462.90
2018-06-18T08:58:04.481Z,101456.96
2018-06-18T09:00:38.738Z,101455.34
2018-06-18T09:03:11.647Z,101457.95
2018-06-18T09:05:43.041Z,101465.59
2018-06-18T09:08:12.194Z,101465.41
2018-06-18T09:10:41.325Z,101457.25
2018-06-18T09:13:10.419Z,101453.13
2018-06-18T09:15:39.541Z,101452.72
2018-06-18T09:18:08.661Z,101454.00
2018-06-18T09:20:37.870Z,101450.33
2018-06-18T09:23:09.220Z,101457.93
2018-06-18T09:28:10.630Z,101457.20
2018-06-18T09:30:39.728Z,101457.81
2018-06-18T09:33:08.838Z,101456.99
2018-06-18T09:35:37.981Z,101445.20
2018-06-18T09:38:07.089Z,101447.69
2018-06-18T09:40:36.185Z,101445.36
2018-06-18T09:43:05.323Z,101442.42
2018-06-18T09:45:34.438Z,101446.52
2018-06-18T09:48:03.567Z,101447.95
2018-06-18T09:50:37.921Z,101453.45
2018-06-18T09:53:12.499Z,101447.78
2018-06-18T09:56:45.551Z,101450.53
2018-06-18T09:59:20.017Z,101449.17
2018-06-18T10:01:49.161Z,101442.22
2018-06-18T10:04:18.291Z,101436.47
2018-06-18T10:06:47.422Z,101437.80
2018-06-18T10:09:16.522Z,101441.24
2018-06-18T10:11:45.662Z,101437.00
2018-06-18T10:14:14.770Z,101441.07
2018-06-18T10:16:43.866Z,101435.37
2018-06-18T10:19:13.024Z,101436.62
2018-06-18T10:21:42.066Z,101438.36
2018-06-18T10:24:11.276Z,101433.04
2018-06-18T10:26:40.326Z,101432.63
2018-06-18T10:29:09.437Z,101431.64
2018-06-18T10:31:38.550Z,101432.72
2018-06-18T10:34:12.806Z,101432.87
2018-06-18T10:36:47.402Z,101434.95
2018-06-18T10:39:21.872Z,101428.14
2018-06-18T10:41:56.538Z,101429.98
2018-06-18T10:44:25.631Z,101420.21
2018-06-18T10:46:54.726Z,101421.39
2018-06-18T10:49:23.828Z,101425.70
2018-06-18T10:51:52.920Z,101421.36
2018-06-18T10:54:22.014Z,101428.86
2018-06-18T10:56:51.167Z,101425.12
2018-06-18T10:59:20.281Z,101423.00
2018-06-18T11:01:49.402Z,101425.94
2018-06-18T11:04:23.790Z,101416.14
2018-06-18T11:06:52.918Z,101414.54
2018-06-18T11:09:22.989Z,101413.95
2018-06-18T11:11:52.904Z,101406.50
2018-06-18T11:14:22.050Z,101409.61
2018-06-18T11:17:53.898Z,101419.71
2018-06-18T11:20:28.185Z,101413.00
2018-06-18T11:23:02.697Z,101419.69
2018-06-18T11:25:37.001Z,101416.06
2018-06-18T11:28:06.127Z,101407.29
2018-06-18T11:30:35.285Z,101415.23
2018-06-18T11:33:04.472Z,101415.73
2018-06-18T11:35:33.589Z,101414.54
2018-06-18T11:38:02.689Z,101418.84
2018-06-18T11:40:31.829Z,101414.65
2018-06-18T11:43:00.947Z,101414.95
2018-06-18T11:45:30.057Z,101417.38
2018-06-18T11:48:09.881Z,101418.16
2018-06-18T11:50:39.006Z,101419.69
2018-06-18T11:53:08.102Z,101420.31
2018-06-18T11:55:38.254Z,101420.08
2018-06-18T11:58:07.354Z,101422.20
2018-06-18T12:00:41.746Z,101423.87
2018-06-18T12:03:16.174Z,101426.52
2018-06-18T12:05:50.511Z,101418.32
2018-06-18T12:08:24.739Z,101415.31
2018-06-18T12:10:53.867Z,101418.42
2018-06-18T12:13:23.038Z,101421.86
2018-06-18T12:15:52.132Z,101424.14
2018-06-18T12:18:21.242Z,101421.00
2018-06-18T12:20:50.366Z,101418.20
2018-06-18T12:23:19.445Z,101421.19
2018-06-18T12:25:48.587Z,101419.03
2018-06-18T12:28:17.714Z,101419.15
2018-06-18T12:30:46.812Z,101421.19
2018-06-18T12:33:15.907Z,101418.39
2018-06-18T12:35:45.035Z,101420.78
2018-06-18T12:38:14.171Z,101415.67
2018-06-18T12:40:43.257Z,101423.91
2018-06-18T12:43:13.434Z,101419.15
2018-06-18T12:45:48.834Z,101418.02
2018-06-18T12:48:23.372Z,101422.47
2018-06-18T12:50:57.616Z,101424.59
2018-06-18T12:53:32.145Z,101432.15
2018-06-18T12:56:06.569Z,101416.27
2018-06-18T12:58:35.661Z,101420.36
2018-06-18T13:01:04.829Z,101423.27
2018-06-18T13:03:33.918Z,101422.93
2018-06-18T13:06:06.901Z,101422.74
2018-06-18T13:08:36.009Z,101416.39
2018-06-18T13:11:05.110Z,101425.91
2018-06-18T13:13:34.360Z,101415.25
2018-06-18T13:16:03.465Z,101419.72
2018-06-18T13:18:32.561Z,101425.91
2018-06-18T13:21:01.668Z,101418.66
2018-06-18T13:23:30.753Z,101423.00
2018-06-18T13:25:59.859Z,101427.28
2018-06-18T13:28:28.970Z,101420.09
2018-06-18T13:30:58.105Z,101428.41
2018-06-18T13:33:27.222Z,101425.30
2018-06-18T13:35:56.318Z,101427.22
2018-06-18T13:38:30.569Z,101436.98
2018-06-18T13:41:05.030Z,101451.46
2018-06-18T13:43:43.697Z,101457.44
2018-06-18T13:46:30.206Z,101462.69
2018-06-18T13:48:59.389Z,101463.40
2018-06-18T13:51:29.018Z,101461.70
2018-06-18T13:53:58.812Z,101471.46
2018-06-18T13:56:28.233Z,101480.50
2018-06-18T13:58:57.630Z,101473.70
2018-06-18T14:01:26.717Z,101476.19
2018-06-18T14:03:55.825Z,101474.47
2018-06-18T14:06:24.920Z,101470.39
2018-06-18T14:08:54.033Z,101463.78
2018-06-18T14:11:23.130Z,101466.23
2018-06-18T14:13:52.355Z,101462.77
2018-06-18T14:16:21.393Z,101452.12
2018-06-18T14:18:50.489Z,101452.86
2018-06-18T14:21:19.592Z,101448.89
2018-06-18T14:23:48.726Z,101454.97
2018-06-18T14:26:17.822Z,101452.07
2018-06-18T14:28:46.913Z,101452.34
2018-06-18T14:31:21.330Z,101445.83
2018-06-18T14:33:55.782Z,101451.33
2018-06-18T14:36:30.294Z,101435.70
2018-06-18T14:39:04.848Z,101435.02
2018-06-18T14:41:34.072Z,101440.05
2018-06-18T14:44:03.393Z,101440.49
2018-06-18T14:46:33.592Z,101438.31
2018-06-18T14:49:03.049Z,101438.60
2018-06-18T14:51:32.213Z,101434.56
2018-06-18T14:54:01.639Z,101432.52
2018-06-18T14:56:34.902Z,101433.24
2018-06-18T14:59:12.267Z,101428.89
2018-06-18T15:01:41.395Z,101432.58
2018-06-18T15:04:10.494Z,101430.07
2018-06-18T15:06:39.613Z,101426.91
2018-06-18T15:09:10.764Z,101428.97
2018-06-18T15:11:40.231Z,101430.11
2018-06-18T15:14:09.386Z,101425.59
2018-06-18T15:16:38.538Z,101429.63
2018-06-18T15:19:07.660Z,101426.95
2018-06-18T15:21:41.057Z,101420.38
2018-06-18T15:24:13.372Z,101423.27
2018-06-18T15:26:42.513Z,101429.08
2018-06-18T15:29:11.890Z,101417.48
2018-06-18T15:31:41.026Z,101414.20
2018-06-18T15:34:10.153Z,101411.22
2018-06-18T15:36:39.261Z,101415.97
2018-06-18T15:39:09.954Z,101412.01
2018-06-18T15:41:39.054Z,101402.56
2018-06-18T15:44:08.291Z,101417.83
2018-06-18T15:46:37.313Z,101411.75
2018-06-18T15:49:06.481Z,101411.70
2018-06-18T15:51:35.610Z,101412.98
2018-06-18T15:54:04.722Z,101408.45
2018-06-18T15:56:33.862Z,101399.32
2018-06-18T15:59:03.133Z,101402.02
2018-06-18T16:01:32.487Z,101393.55
2018-06-18T16:04:05.585Z,101390.91
2018-06-18T16:06:34.673Z,101394.62
2018-06-18T16:09:04.676Z,101395.75
2018-06-18T16:11:33.784Z,101385.91
2018-06-18T16:14:02.884Z,101383.13
2018-06-18T16:16:32.024Z,101377.42
2018-06-18T16:19:01.133Z,101378.20
2018-06-18T16:21:30.237Z,101376.97
2018-06-18T16:23:59.356Z,101377.22
2018-06-18T16:26:28.437Z,101375.88
2018-06-18T16:28:57.541Z,101374.03
2018-06-18T16:31:26.753Z,101369.30
2018-06-18T16:33:55.857Z,101371.73
2018-06-18T16:36:25.030Z,101370.66
2018-06-18T16:38:54.178Z,101365.41
2018-06-18T16:41:23.303Z,101363.66
2018-06-18T16:43:52.461Z,101358.62
2018-06-18T16:46:21.632Z,101362.46
2018-06-18T16:48:50.858Z,101359.64
2018-06-18T16:51:20.010Z,101362.17
2018-06-18T16:53:49.136Z,101365.50
2018-06-18T16:56:19.393Z,101364.77
2018-06-18T16:58:48.602Z,101365.81
2018-06-18T17:01:17.830Z,101361.33
2018-06-18T17:03:47.292Z,101368.67
2018-06-18T17:06:16.457Z,101367.91
2018-06-18T17:08:45.557Z,101364.80
2018-06-18T17:11:14.720Z,101356.14
2018-06-18T17:13:43.817Z,101356.33
2018-06-18T17:16:13.006Z,101353.05
2018-06-18T17:18:42.145Z,101364.09
2018-06-18T17:21:11.294Z,101367.00
2018-06-18T17:23:40.414Z,101369.23
2018-06-18T17:26:09.558Z,101375.43
2018-06-18T17:28:38.659Z,101378.51
2018-06-18T17:31:08.087Z,101372.03
2018-06-18T17:33:37.460Z,101370.61
2018-06-18T17:36:06.964Z,101374.69
2018-06-18T17:38:36.061Z,101373.78
2018-06-18T17:41:05.417Z,101366.27
2018-06-18T17:43:36.541Z,101370.67
2018-06-18T17:46:05.685Z,101372.09
2018-06-18T17:48:34.854Z,101371.84
2018-06-18T17:51:03.957Z,101369.80
2018-06-18T17:53:33.105Z,101374.69
2018-06-18T17:56:02.210Z,101377.03
2018-06-18T17:58:31.418Z,101368.22
2018-06-18T18:01:00.508Z,101369.22
2018-06-18T18:03:29.606Z,101366.58
2018-06-18T18:05:58.787Z,101367.12
2018-06-18T18:08:27.864Z,101359.99
2018-06-18T18:10:56.954Z,101356.08
2018-06-18T18:13:26.215Z,101358.22
2018-06-18T18:15:55.282Z,101350.28
2018-06-18T18:18:24.462Z,101355.17
2018-06-18T18:20:53.548Z,101355.29
2018-06-18T18:23:22.662Z,101353.09
2018-06-18T18:25:51.898Z,101361.99
2018-06-18T18:28:20.993Z,101369.73
2018-06-18T18:30:50.209Z,101371.17
2018-06-18T18:33:19.373Z,101376.22
2018-06-18T18:35:48.590Z,101365.87
2018-06-18T18:38:17.686Z,101371.01
2018-06-18T18:40:46.855Z,101368.85
2018-06-18T18:43:15.973Z,101375.52
2018-06-18T18:45:45.757Z,101374.81
2018-06-18T18:48:14.910Z,101371.84
2018-06-18T18:50:44.002Z,101368.36
2018-06-18T18:53:13.106Z,101371.05
2018-06-18T18:55:56.921Z,101380.02
2018-06-18T18:59:36.540Z,101383.62
2018-06-18T19:02:05.729Z,101375.33
2018-06-18T19:04:54.407Z,101373.71
2018-06-18T19:07:31.310Z,101378.84
2018-06-18T19:10:09.694Z,101375.20
2018-06-18T19:12:39.093Z,101381.53
2018-06-18T19:15:08.813Z,101377.27
2018-06-18T19:17:38.190Z,101376.65
2018-06-18T19:20:12.798Z,101377.62
2018-06-18T19:22:46.885Z,101376.52
2018-06-18T19:25:16.150Z,101392.70
2018-06-18T19:27:45.186Z,101393.08
2018-06-18T19:30:14.409Z,101384.62
2018-06-18T19:32:45.637Z,101380.46
2018-06-18T19:35:14.766Z,101391.04
2018-06-18T19:37:43.848Z,101387.87
2018-06-18T19:40:12.957Z,101391.95
2018-06-18T19:42:42.166Z,101391.64
2018-06-18T19:45:12.842Z,101396.13
2018-06-18T19:47:48.590Z,101390.63
2018-06-18T19:50:18.233Z,101390.53
2018-06-18T19:52:47.349Z,101400.20
2018-06-18T19:55:22.541Z,101408.73
2018-06-18T19:57:51.693Z,101401.32
2018-06-18T20:00:22.159Z,101406.19
2018-06-18T20:02:51.285Z,101404.31
2018-06-18T20:05:20.507Z,101402.93
2018-06-18T20:07:59.133Z,101412.48
2018-06-18T20:10:28.451Z,101413.59
2018-06-18T20:12:57.562Z,101413.67
2018-06-18T20:15:26.895Z,101409.28
2018-06-18T20:17:55.996Z,101419.62
2018-06-18T20:20:25.094Z,101416.70
2018-06-18T20:22:54.249Z,101418.85
2018-06-18T20:25:26.714Z,101413.33
2018-06-18T20:27:55.765Z,101420.63
2018-06-18T20:30:30.994Z,101421.70
2018-06-18T20:33:00.225Z,101425.91
2018-06-18T20:35:33.647Z,101429.45
2018-06-18T20:38:02.752Z,101441.34
2018-06-18T20:40:31.942Z,101436.59
2018-06-18T20:43:01.029Z,101438.33
2018-06-18T20:45:30.524Z,101437.91
2018-06-18T20:47:59.581Z,101446.53
2018-06-18T20:50:28.741Z,101446.63
2018-06-18T20:52:57.846Z,101454.08
2018-06-18T20:55:26.941Z,101459.46
2018-06-18T20:57:56.195Z,101457.59
2018-06-18T21:00:25.301Z,101460.95
2018-06-18T21:02:54.571Z,101459.84
2018-06-18T21:05:23.816Z,101465.23
2018-06-18T21:07:52.960Z,101472.39
2018-06-18T21:10:22.118Z,101471.34
2018-06-18T21:12:51.282Z,101473.60
2018-06-18T21:15:20.599Z,101475.09
2018-06-18T21:17:49.698Z,101481.39
2018-06-18T21:20:18.874Z,101489.39
2018-06-18T21:22:48.034Z,101477.19
2018-06-18T21:25:17.154Z,101478.09
2018-06-18T21:27:46.301Z,101486.11
2018-06-18T21:30:15.419Z,101478.34
2018-06-18T21:32:44.509Z,101484.98
2018-06-18T21:35:14.017Z,101485.30
2018-06-18T21:37:43.108Z,101495.55
2018-06-18T21:40:12.266Z,101493.00
2018-06-18T21:42:41.346Z,101507.77
2018-06-18T21:45:17.581Z,101506.65
2018-06-18T21:47:47.265Z,101498.61
2018-06-18T21:50:16.709Z,101506.36
2018-06-18T21:52:45.925Z,101517.05
2018-06-18T21:55:15.378Z,101517.55
2018-06-18T21:57:44.565Z,101510.17
2018-06-18T22:00:18.761Z,101510.02
2018-06-18T22:02:48.462Z,101515.01
2018-06-18T22:05:17.569Z,101515.04
2018-06-18T22:07:46.729Z,101509.20
2018-06-18T22:10:15.927Z,101515.79
2018-06-18T22:12:45.032Z,101515.97
2018-06-18T22:15:14.186Z,101511.12
2018-06-18T22:17:43.325Z,101516.52
2018-06-18T22:20:12.478Z,101510.45
2018-06-18T22:22:41.586Z,101506.05
2018-06-18T22:25:10.717Z,101510.80
2018-06-18T22:27:39.897Z,101510.14
2018-06-18T22:30:08.981Z,101509.27
2018-06-18T22:32:38.141Z,101510.03
2018-06-18T22:35:07.478Z,101508.91
2018-06-18T22:37:36.650Z,101512.95
2018-06-18T22:40:05.785Z,101514.89
2018-06-18T22:42:34.875Z,101508.21
2018-06-18T22:45:04.247Z,101503.33
2018-06-18T22:47:33.393Z,101508.74
2018-06-18T22:50:02.529Z,101514.27
2018-06-18T22:52:31.661Z,101517.89
2018-06-18T22:55:00.755Z,101519.80
2018-06-18T22:57:29.876Z,101524.84
2018-06-18T22:59:58.989Z,101525.52
2018-06-18T23:02:31.064Z,101527.98
2018-06-18T23:05:00.169Z,101528.33
2018-06-18T23:07:29.337Z,101527.31
2018-06-18T23:09:58.457Z,101533.67
2018-06-18T23:12:34.755Z,101537.02
2018-06-18T23:15:03.986Z,101536.86
2018-06-18T23:17:33.085Z,101535.48
2018-06-18T23:20:02.476Z,101535.28
2018-06-18T23:22:33.155Z,101548.49
2018-06-18T23:25:02.281Z,101545.20
2018-06-18T23:27:31.486Z,101537.18
2018-06-18T23:30:02.023Z,101549.66
2018-06-18T23:32:31.146Z,101545.70
2018-06-18T23:35:00.320Z,101547.18
2018-06-18T23:37:29.562Z,101546.33
2018-06-18T23:39:58.641Z,101550.95
2018-06-18T23:42:27.745Z,101550.73
2018-06-18T23:44:56.894Z,101560.72
2018-06-18T23:47:26.010Z,101556.22
2018-06-18T23:49:55.121Z,101558.22
2018-06-18T23:52:24.293Z,101549.20
2018-06-18T23:54:53.533Z,101550.23
2018-06-18T23:57:22.629Z,101551.15
2018-06-18T23:59:51.830Z,101547.85
